Time;durP1;ratioP1;P1;durP2;ratioP2;P2;SDS_P1;SDS_P2;PMS_P1;PMS_P2;Temp;Humidity;BMP_temperature;BMP_pressure;BME280_temperature;BME280_humidity;BME280_pressure;Samples;Min_cycle;Max_cycle;Signal;HPM_P1;HPM_P2
2022/06/21 00:02:21;;;;;;;7.70;1.88;;;10.60;99.90;;;;;;5039828;28;20040;-82
2022/06/21 00:04:47;;;;;;;11.93;2.15;;;10.60;99.90;;;;;;5057970;28;20479;-83
2022/06/21 00:07:29;;;;;;;7.15;1.20;;;10.60;99.90;;;;;;5056351;28;20037;-82
2022/06/21 00:09:59;;;;;;;4.57;1.40;;;10.70;99.90;;;;;;5059075;28;20215;-82
2022/06/21 00:12:24;;;;;;;5.82;2.03;;;10.70;99.90;;;;;;5057014;28;20037;-83
2022/06/21 00:14:50;;;;;;;7.22;1.90;;;10.70;99.90;;;;;;5041994;28;20090;-83
2022/06/21 00:17:24;;;;;;;9.85;1.77;;;10.70;99.90;;;;;;5054070;28;20033;-82
2022/06/21 00:19:50;;;;;;;6.35;1.70;;;10.70;99.90;;;;;;5042338;28;20040;-83
2022/06/21 00:22:28;;;;;;;8.15;2.20;;;10.70;99.90;;;;;;5052485;28;20033;-82
2022/06/21 00:24:54;;;;;;;9.20;3.05;;;10.70;99.90;;;;;;5048551;28;20059;-83
2022/06/21 00:27:24;;;;;;;7.07;1.40;;;10.60;99.90;;;;;;5038198;28;20432;-83
2022/06/21 00:29:49;;;;;;;7.78;1.77;;;10.60;99.90;;;;;;5058263;28;20040;-83
2022/06/21 00:32:17;;;;;;;3.80;1.23;;;10.60;99.90;;;;;;5052914;28;20444;-84
2022/06/21 00:34:44;;;;;;;8.40;1.73;;;10.50;99.90;;;;;;5037002;28;20106;-84
2022/06/21 00:37:15;;;;;;;8.25;1.80;;;10.60;99.90;;;;;;5054907;28;20052;-83
2022/06/21 00:39:41;;;;;;;5.30;1.55;;;10.50;99.90;;;;;;5058470;28;20064;-82
2022/06/21 00:42:28;;;;;;;11.45;2.90;;;10.50;99.90;;;;;;5058803;28;20040;-83
2022/06/21 00:45:03;;;;;;;5.70;1.48;;;10.60;99.90;;;;;;5058696;28;20495;-82
2022/06/21 00:47:55;;;;;;;5.95;1.90;;;10.60;99.90;;;;;;5057238;28;20040;-83
2022/06/21 00:50:34;;;;;;;12.30;2.50;;;10.50;99.90;;;;;;5035807;28;20040;-82
2022/06/21 00:53:14;;;;;;;4.15;2.17;;;10.50;99.90;;;;;;5046489;28;20047;-83
2022/06/21 00:56:02;;;;;;;5.85;1.90;;;10.50;99.90;;;;;;5045096;28;20041;-83
2022/06/21 00:58:30;;;;;;;6.45;2.08;;;10.50;99.90;;;;;;5062125;28;20039;-82
2022/06/21 01:01:23;;;;;;;9.50;2.13;;;10.40;99.90;;;;;;5058862;28;20391;-81
2022/06/21 01:03:54;;;;;;;7.32;2.05;;;10.40;99.90;;;;;;5042247;28;20072;-82
2022/06/21 01:06:35;;;;;;;8.32;2.35;;;10.40;99.90;;;;;;5049093;28;20472;-82
2022/06/21 01:09:07;;;;;;;11.43;1.75;;;10.40;99.90;;;;;;5053574;28;20048;-82
2022/06/21 01:11:42;;;;;;;9.65;2.38;;;10.30;99.90;;;;;;5063011;28;20070;-83
2022/06/21 01:14:09;;;;;;;4.53;1.60;;;10.30;99.90;;;;;;5062643;28;20097;-82
2022/06/21 01:16:37;;;;;;;9.75;1.95;;;10.20;99.90;;;;;;5046627;28;20037;-82
2022/06/21 01:19:10;;;;;;;4.00;2.42;;;10.20;99.90;;;;;;5062652;28;20106;-82
2022/06/21 01:21:38;;;;;;;5.97;1.95;;;10.10;99.90;;;;;;5064828;28;20051;-82
2022/06/21 01:24:06;;;;;;;7.88;2.13;;;10.10;99.90;;;;;;5062863;28;20130;-83
2022/06/21 01:26:43;;;;;;;5.25;2.03;;;10.10;99.90;;;;;;5066211;28;20040;-82
2022/06/21 01:29:13;;;;;;;6.43;2.72;;;10.20;99.90;;;;;;5056349;28;20052;-82
2022/06/21 01:31:39;;;;;;;5.82;2.40;;;10.20;99.90;;;;;;5064367;28;20044;-84
2022/06/21 01:34:20;;;;;;;7.38;4.15;;;10.20;99.90;;;;;;5059443;28;20395;-83
2022/06/21 01:36:56;;;;;;;4.00;1.98;;;10.10;99.90;;;;;;5057459;28;20371;-85
2022/06/21 01:39:29;;;;;;;13.05;3.13;;;10.10;99.90;;;;;;5054130;28;20537;-83
2022/06/21 01:42:01;;;;;;;6.75;2.45;;;10.10;99.90;;;;;;5044889;28;20037;-83
2022/06/21 01:44:32;;;;;;;4.97;2.13;;;10.10;99.90;;;;;;5056802;28;20044;-84
2022/06/21 01:47:01;;;;;;;4.35;1.30;;;10.10;99.90;;;;;;5060430;28;20057;-84
2022/06/21 01:49:31;;;;;;;5.28;1.88;;;10.10;99.90;;;;;;5056112;28;20040;-83
2022/06/21 01:52:24;;;;;;;4.03;1.38;;;10.10;99.90;;;;;;5051550;28;20036;-84
2022/06/21 01:55:01;;;;;;;4.93;2.10;;;10.00;99.90;;;;;;5053739;28;20428;-85
2022/06/21 01:57:28;;;;;;;6.85;1.70;;;10.00;99.90;;;;;;5044777;28;20548;-83
2022/06/21 01:59:54;;;;;;;6.65;2.05;;;9.90;99.90;;;;;;5042016;28;20037;-83
2022/06/21 02:02:24;;;;;;;6.03;1.80;;;9.90;99.90;;;;;;5055356;28;20044;-83
2022/06/21 02:04:58;;;;;;;7.55;1.73;;;9.90;99.90;;;;;;5058091;28;20052;-83
2022/06/21 02:07:30;;;;;;;5.63;1.83;;;9.80;99.90;;;;;;5041344;28;20184;-82
2022/06/21 02:10:24;;;;;;;4.43;1.92;;;9.80;99.90;;;;;;5052259;28;20127;-82
2022/06/21 02:12:56;;;;;;;6.20;1.70;;;9.80;99.90;;;;;;5030163;28;20071;-82
2022/06/21 02:15:32;;;;;;;6.72;2.13;;;9.70;99.90;;;;;;5065305;28;20049;-81
2022/06/21 02:18:00;;;;;;;6.18;2.80;;;9.70;99.90;;;;;;5066343;28;20092;-82
2022/06/21 02:20:38;;;;;;;5.78;2.35;;;9.70;99.90;;;;;;5060803;28;20028;-81
2022/06/21 02:23:05;;;;;;;7.03;2.53;;;9.70;99.90;;;;;;5060141;28;20361;-82
2022/06/21 02:25:32;;;;;;;6.75;2.65;;;9.70;99.90;;;;;;5063583;28;20383;-81
2022/06/21 02:28:04;;;;;;;5.63;2.08;;;9.70;99.90;;;;;;5063830;28;20045;-81
2022/06/21 02:30:31;;;;;;;7.32;2.05;;;9.70;99.90;;;;;;5054707;28;20041;-82
2022/06/21 02:33:00;;;;;;;4.10;1.95;;;9.70;99.90;;;;;;5060076;28;20093;-81
2022/06/21 02:35:46;;;;;;;4.63;2.00;;;9.60;99.90;;;;;;5057093;28;20539;-81
2022/06/21 02:38:23;;;;;;;6.07;1.85;;;9.50;99.90;;;;;;5044499;28;20579;-81
2022/06/21 02:40:55;;;;;;;9.07;2.20;;;9.40;99.90;;;;;;5065752;28;20086;-81
2022/06/21 02:43:26;;;;;;;5.18;1.80;;;9.40;99.90;;;;;;5062406;28;20029;-81
2022/06/21 02:46:01;;;;;;;7.75;2.55;;;9.30;99.90;;;;;;5060783;28;20048;-81
2022/06/21 02:48:41;;;;;;;7.25;2.72;;;9.30;99.90;;;;;;5055900;28;20134;-81
2022/06/21 02:51:13;;;;;;;8.38;2.10;;;9.30;99.90;;;;;;5042086;28;20032;-82
2022/06/21 02:53:47;;;;;;;4.30;2.13;;;9.30;99.90;;;;;;5059285;28;20457;-81
2022/06/21 02:56:35;;;;;;;5.57;2.10;;;9.20;99.90;;;;;;5056247;28;20033;-81
2022/06/21 02:59:02;;;;;;;5.60;2.28;;;9.20;99.90;;;;;;5060853;28;20295;-82
2022/06/21 03:01:29;;;;;;;3.53;1.48;;;9.20;99.90;;;;;;5046613;28;20052;-83
2022/06/21 03:03:56;;;;;;;3.38;1.95;;;9.20;99.90;;;;;;5056986;28;20037;-81
2022/06/21 03:06:22;;;;;;;5.30;2.08;;;9.20;99.90;;;;;;5046959;28;20037;-81
2022/06/21 03:08:58;;;;;;;2.50;1.52;;;9.20;99.90;;;;;;5063637;28;20056;-82
2022/06/21 03:11:28;;;;;;;5.32;1.30;;;9.20;99.90;;;;;;5068109;28;20161;-82
2022/06/21 03:13:54;;;;;;;7.30;1.98;;;9.20;99.90;;;;;;5065871;28;20912;-81
2022/06/21 03:16:22;;;;;;;5.75;2.47;;;9.10;99.90;;;;;;5049626;28;20041;-82
2022/06/21 03:18:51;;;;;;;3.67;1.05;;;9.10;99.90;;;;;;5081772;28;20032;-82
2022/06/21 03:21:26;;;;;;;4.25;1.60;;;9.10;99.90;;;;;;5070111;28;20060;-82
2022/06/21 03:23:52;;;;;;;4.05;1.83;;;9.10;99.90;;;;;;5049880;28;20040;-82
2022/06/21 03:26:17;;;;;;;4.47;1.10;;;9.00;99.90;;;;;;5062873;28;20037;-82
2022/06/21 03:28:45;;;;;;;2.15;0.85;;;8.90;99.90;;;;;;5052156;28;20198;-82
2022/06/21 03:31:23;;;;;;;4.28;0.90;;;8.90;99.90;;;;;;5066984;28;20080;-82
2022/06/21 03:34:06;;;;;;;4.93;1.65;;;8.80;99.90;;;;;;5062064;28;20037;-82
2022/06/21 03:36:32;;;;;;;3.78;2.03;;;8.70;99.90;;;;;;5045659;28;20036;-82
2022/06/21 03:39:04;;;;;;;4.15;2.08;;;8.70;99.90;;;;;;5066621;28;20125;-83
2022/06/21 03:41:43;;;;;;;3.92;1.50;;;8.60;99.90;;;;;;5055473;28;20070;-81
2022/06/21 03:44:26;;;;;;;2.83;1.77;;;8.60;99.90;;;;;;5059062;28;20033;-83
2022/06/21 03:47:08;;;;;;;4.50;2.20;;;8.60;99.90;;;;;;5056312;28;20044;-83
2022/06/21 03:49:43;;;;;;;3.03;2.28;;;8.60;99.90;;;;;;5050321;28;20032;-84
2022/06/21 03:52:41;;;;;;;2.38;1.30;;;8.60;99.90;;;;;;5058248;28;20036;-83
2022/06/21 03:55:28;;;;;;;5.40;1.95;;;8.60;99.90;;;;;;5059197;28;20076;-83
2022/06/21 03:58:39;;;;;;;4.07;2.00;;;8.70;99.90;;;;;;5059096;28;20043;-83
2022/06/21 04:01:05;;;;;;;3.60;2.38;;;8.70;99.90;;;;;;5046773;28;20135;-83
2022/06/21 04:03:38;;;;;;;7.10;4.47;;;8.70;99.90;;;;;;5064484;28;20131;-83
2022/06/21 04:06:17;;;;;;;4.55;2.22;;;8.70;99.90;;;;;;5049442;28;20045;-83
2022/06/21 04:09:08;;;;;;;6.00;3.03;;;8.80;99.90;;;;;;5050269;28;20051;-83
2022/06/21 04:11:50;;;;;;;4.68;2.72;;;8.90;99.90;;;;;;5062345;28;20445;-82
2022/06/21 04:14:39;;;;;;;7.05;2.88;;;9.00;99.90;;;;;;5051818;28;20037;-84
2022/06/21 04:17:27;;;;;;;5.10;2.60;;;9.00;99.90;;;;;;5054600;28;20028;-82
2022/06/21 04:20:15;;;;;;;3.55;2.15;;;9.10;99.90;;;;;;5048015;28;20434;-81
2022/06/21 04:22:58;;;;;;;9.13;3.67;;;9.20;99.90;;;;;;5057708;28;20041;-81
2022/06/21 04:25:56;;;;;;;5.78;2.92;;;9.30;99.90;;;;;;5063536;28;20040;-81
2022/06/21 04:29:14;;;;;;;7.32;3.08;;;9.40;99.90;;;;;;5047644;28;20443;-81
2022/06/21 04:31:47;;;;;;;5.97;3.47;;;9.50;99.90;;;;;;5035877;28;20380;-81
2022/06/21 04:34:33;;;;;;;5.47;3.20;;;9.60;99.90;;;;;;5065720;28;20036;-81
2022/06/21 04:37:05;;;;;;;3.13;2.80;;;9.70;99.90;;;;;;5055055;28;20039;-81
2022/06/21 04:39:49;;;;;;;4.80;2.97;;;9.80;99.90;;;;;;5050789;28;20097;-80
2022/06/21 04:42:43;;;;;;;5.38;3.00;;;9.90;99.90;;;;;;5068403;28;20463;-81
2022/06/21 04:45:31;;;;;;;5.05;3.13;;;10.10;99.90;;;;;;5063150;28;20101;-81
2022/06/21 04:48:30;;;;;;;5.25;3.10;;;10.20;99.90;;;;;;5066004;28;20067;-81
2022/06/21 04:51:13;;;;;;;7.18;3.40;;;10.30;99.90;;;;;;5048469;28;20044;-82
2022/06/21 04:53:44;;;;;;;6.10;3.45;;;10.40;99.90;;;;;;5063717;28;20059;-82
2022/06/21 04:56:33;;;;;;;6.03;3.03;;;10.50;99.90;;;;;;5047775;28;20043;-81
2022/06/21 04:59:01;;;;;;;9.45;3.90;;;10.70;99.90;;;;;;5047908;28;20581;-81
2022/06/21 05:01:37;;;;;;;10.93;4.22;;;10.90;99.90;;;;;;5059315;28;20036;-81
2022/06/21 05:04:34;;;;;;;4.05;3.08;;;11.00;99.90;;;;;;5075459;28;20116;-81
2022/06/21 05:07:05;;;;;;;6.35;3.25;;;11.20;99.90;;;;;;5054455;28;20065;-81
2022/06/21 05:09:33;;;;;;;9.05;4.80;;;11.40;99.90;;;;;;5058785;28;20509;-82
2022/06/21 05:12:11;;;;;;;15.25;5.10;;;11.50;99.90;;;;;;5054303;28;20083;-82
2022/06/21 05:14:41;;;;;;;9.55;5.60;;;11.70;99.90;;;;;;5044953;28;20061;-82
2022/06/21 05:17:16;;;;;;;8.40;4.75;;;11.90;99.90;;;;;;5071249;28;20040;-82
2022/06/21 05:19:58;;;;;;;16.17;5.07;;;12.00;99.90;;;;;;5055373;28;20029;-82
2022/06/21 05:22:32;;;;;;;8.52;4.80;;;12.30;99.90;;;;;;5045856;28;20407;-82
2022/06/21 05:24:59;;;;;;;9.20;4.30;;;12.50;99.90;;;;;;5061849;28;20040;-83
2022/06/21 05:27:38;;;;;;;7.80;4.60;;;12.70;99.90;;;;;;5062037;28;20098;-84
2022/06/21 05:30:32;;;;;;;6.65;3.80;;;12.90;99.90;;;;;;5062339;28;20095;-82
2022/06/21 05:33:03;;;;;;;11.35;4.15;;;12.90;99.90;;;;;;5045250;28;20032;-83
2022/06/21 05:35:33;;;;;;;6.13;3.92;;;13.00;99.90;;;;;;5055644;28;20099;-84
2022/06/21 05:38:21;;;;;;;7.65;3.38;;;13.20;99.90;;;;;;5038854;28;20102;-84
2022/06/21 05:41:29;;;;;;;10.10;4.43;;;13.30;99.90;;;;;;5055280;28;20068;-84
2022/06/21 05:44:08;;;;;;;4.07;3.10;;;13.50;99.90;;;;;;5056304;28;20086;-84
2022/06/21 05:46:37;;;;;;;6.22;3.20;;;13.70;99.90;;;;;;5056268;28;20063;-84
2022/06/21 05:49:08;;;;;;;7.13;4.00;;;13.80;99.90;;;;;;5065447;28;20091;-82
2022/06/21 05:51:34;;;;;;;10.93;3.72;;;14.00;99.90;;;;;;5058927;28;20037;-84
2022/06/21 05:54:11;;;;;;;5.03;1.88;;;14.10;99.90;;;;;;5059085;28;20056;-82
2022/06/21 05:56:38;;;;;;;6.75;3.25;;;14.20;99.90;;;;;;5060406;28;20081;-81
2022/06/21 05:59:08;;;;;;;5.00;2.42;;;14.40;99.90;;;;;;5058840;28;20041;-82
2022/06/21 06:02:01;;;;;;;5.88;4.25;;;14.60;99.90;;;;;;5063603;28;20235;-83
2022/06/21 06:04:44;;;;;;;7.40;3.70;;;14.70;99.90;;;;;;5060140;28;20041;-82
2022/06/21 06:07:16;;;;;;;4.50;2.47;;;14.70;99.90;;;;;;5040590;28;20851;-81
2022/06/21 06:09:47;;;;;;;3.90;2.17;;;14.70;99.90;;;;;;5031915;28;20045;-82
2022/06/21 06:12:30;;;;;;;6.88;2.30;;;14.80;99.90;;;;;;5048926;28;20044;-81
2022/06/21 06:15:05;;;;;;;3.58;1.58;;;14.80;99.90;;;;;;5031406;28;20094;-81
2022/06/21 06:17:55;;;;;;;3.88;1.20;;;14.80;99.90;;;;;;5046652;28;20113;-81
2022/06/21 06:20:28;;;;;;;5.53;1.30;;;14.90;99.90;;;;;;5029196;28;20323;-81
2022/06/21 06:23:22;;;;;;;4.07;1.80;;;15.00;99.90;;;;;;5045591;28;20060;-80
2022/06/21 06:26:05;;;;;;;2.47;1.20;;;15.10;99.90;;;;;;5038310;28;20036;-80
2022/06/21 06:28:44;;;;;;;3.35;0.98;;;15.30;99.90;;;;;;5048981;28;20048;-81
2022/06/21 06:31:34;;;;;;;5.97;1.75;;;15.60;99.90;;;;;;5049584;28;20044;-81
2022/06/21 06:34:06;;;;;;;3.67;1.00;;;16.00;99.90;;;;;;5029553;28;20049;-80
2022/06/21 06:36:36;;;;;;;2.42;1.15;;;16.20;99.90;;;;;;5028712;28;20076;-81
2022/06/21 06:39:23;;;;;;;2.47;0.52;;;16.50;99.90;;;;;;5029057;28;20037;-81
2022/06/21 06:42:06;;;;;;;2.67;0.55;;;16.40;99.90;;;;;;5028944;28;20153;-81
2022/06/21 06:44:38;;;;;;;4.00;0.50;;;16.40;99.90;;;;;;5027638;28;20056;-80
2022/06/21 06:47:13;;;;;;;3.38;0.60;;;16.30;99.90;;;;;;5044209;28;20380;-81
2022/06/21 06:49:49;;;;;;;3.75;0.73;;;16.30;99.90;;;;;;5062376;28;20092;-82
2022/06/21 06:52:32;;;;;;;4.63;0.75;;;16.50;99.90;;;;;;5061387;28;20032;-81
2022/06/21 06:55:33;;;;;;;2.72;0.60;;;16.80;99.90;;;;;;5062350;28;20040;-80
2022/06/21 06:58:10;;;;;;;4.88;0.60;;;17.00;99.90;;;;;;5043169;28;20045;-81
2022/06/21 07:00:46;;;;;;;5.35;0.85;;;17.10;99.90;;;;;;5049284;28;20052;-81
2022/06/21 07:03:19;;;;;;;5.10;1.40;;;17.20;99.90;;;;;;5046398;28;20055;-80
2022/06/21 07:05:57;;;;;;;4.32;1.40;;;17.10;99.90;;;;;;5060149;28;20135;-80
2022/06/21 07:08:34;;;;;;;5.50;0.70;;;17.10;99.90;;;;;;5059363;28;20395;-80
2022/06/21 07:11:05;;;;;;;5.03;1.55;;;17.40;99.90;;;;;;5058353;28;20048;-80
2022/06/21 07:13:32;;;;;;;4.68;1.45;;;17.80;99.90;;;;;;5058653;28;20049;-80
2022/06/21 07:16:12;;;;;;;7.63;2.08;;;18.10;99.90;;;;;;5058869;28;20040;-80
2022/06/21 07:18:49;;;;;;;3.58;1.20;;;18.30;99.90;;;;;;5059743;28;20081;-80
2022/06/21 07:21:16;;;;;;;3.70;1.85;;;18.50;99.90;;;;;;5059394;28;20159;-80
2022/06/21 07:23:44;;;;;;;5.63;1.60;;;18.60;99.90;;;;;;5058838;28;20076;-80
2022/06/21 07:26:34;;;;;;;4.60;1.42;;;18.70;99.90;;;;;;5058876;28;20117;-80
2022/06/21 07:29:09;;;;;;;5.95;1.65;;;18.90;99.90;;;;;;5060213;28;20327;-79
2022/06/21 07:31:40;;;;;;;4.88;1.05;;;19.10;99.90;;;;;;5061172;28;20037;-81
2022/06/21 07:34:12;;;;;;;4.65;0.85;;;19.20;99.90;;;;;;5059753;28;20041;-79
2022/06/21 07:36:52;;;;;;;5.53;1.63;;;19.50;99.90;;;;;;5060147;28;20044;-80
2022/06/21 07:39:38;;;;;;;4.65;0.80;;;19.50;99.90;;;;;;5042422;28;20037;-79
2022/06/21 07:42:11;;;;;;;4.25;0.88;;;19.50;99.90;;;;;;5058753;28;20044;-79
2022/06/21 07:44:54;;;;;;;6.75;0.98;;;19.60;99.90;;;;;;5041889;28;20051;-79
2022/06/21 07:47:29;;;;;;;6.25;0.93;;;19.80;99.90;;;;;;5060105;28;20048;-79
2022/06/21 07:50:09;;;;;;;3.25;0.70;;;19.60;99.90;;;;;;5057397;28;20045;-79
2022/06/21 07:52:49;;;;;;;4.95;1.17;;;19.70;99.90;;;;;;5056935;28;20051;-79
2022/06/21 07:55:43;;;;;;;4.70;1.52;;;19.90;99.90;;;;;;5040437;28;20107;-79
2022/06/21 07:58:18;;;;;;;5.55;0.68;;;20.20;99.90;;;;;;5056525;28;20041;-79
2022/06/21 08:06:42;;;;;;;5.93;1.00;;;21.10;97.80;;;;;;5057741;28;20057;-79
2022/06/21 08:09:17;;;;;;;2.88;0.70;;;21.20;96.40;;;;;;5057207;28;20191;-79
2022/06/21 08:11:45;;;;;;;2.42;0.60;;;20.90;97.40;;;;;;5057851;28;20048;-80
2022/06/21 08:14:12;;;;;;;2.20;0.45;;;21.10;98.40;;;;;;5056858;28;20377;-79
2022/06/21 08:16:43;;;;;;;2.30;0.82;;;21.20;96.60;;;;;;5058783;28;20064;-79
2022/06/21 08:19:47;;;;;;;2.72;0.40;;;21.00;95.30;;;;;;5056897;28;20069;-79
2022/06/21 08:22:19;;;;;;;4.20;0.57;;;20.90;95.40;;;;;;5043420;28;20075;-79
2022/06/21 08:24:56;;;;;;;4.10;0.73;;;20.70;95.40;;;;;;5057085;28;20041;-80
2022/06/21 08:27:45;;;;;;;2.75;0.60;;;20.80;95.30;;;;;;5057208;28;20045;-80
2022/06/21 08:30:16;;;;;;;3.08;0.40;;;21.20;95.40;;;;;;5057993;28;20132;-80
2022/06/21 08:32:51;;;;;;;3.60;0.75;;;21.60;93.60;;;;;;5057009;28;20102;-80
2022/06/21 08:35:30;;;;;;;3.08;0.40;;;21.70;91.50;;;;;;5059416;28;20103;-79
2022/06/21 08:38:07;;;;;;;4.60;0.45;;;21.70;92.30;;;;;;5058042;28;20076;-80
2022/06/21 08:40:58;;;;;;;4.22;0.63;;;22.00;93.40;;;;;;5059860;28;20033;-80
2022/06/21 08:43:36;;;;;;;3.45;0.60;;;22.60;93.00;;;;;;5045094;28;20105;-81
2022/06/21 08:46:23;;;;;;;5.10;1.48;;;23.00;90.20;;;;;;5060763;28;20112;-79
2022/06/21 08:49:21;;;;;;;3.13;0.52;;;23.10;87.50;;;;;;5059946;28;20044;-79
2022/06/21 08:51:59;;;;;;;2.88;0.50;;;22.70;86.60;;;;;;5059836;28;20040;-80
2022/06/21 08:54:45;;;;;;;1.92;0.50;;;21.80;88.20;;;;;;5056733;28;20055;-79
2022/06/21 08:58:06;;;;;;;3.88;0.52;;;21.20;90.90;;;;;;5056339;28;20460;-79
2022/06/21 09:00:40;;;;;;;3.17;0.73;;;20.60;90.60;;;;;;5017798;28;20080;-79
2022/06/21 09:03:36;;;;;;;3.70;0.32;;;20.90;91.20;;;;;;5056533;28;20184;-79
2022/06/21 09:06:05;;;;;;;2.47;0.40;;;21.50;87.80;;;;;;5056216;28;20068;-80
2022/06/21 09:09:14;;;;;;;2.08;0.38;;;22.00;90.50;;;;;;5055924;28;20052;-79
2022/06/21 09:11:46;;;;;;;3.22;0.43;;;22.20;84.00;;;;;;5057295;28;20044;-80
2022/06/21 09:14:24;;;;;;;1.83;0.40;;;22.70;85.20;;;;;;5056545;28;20048;-79
2022/06/21 09:17:12;;;;;;;2.15;0.80;;;23.10;80.70;;;;;;5056521;28;20335;-79
2022/06/21 09:19:48;;;;;;;3.90;0.50;;;22.90;77.50;;;;;;5037460;28;20033;-79
2022/06/21 09:22:36;;;;;;;6.82;0.70;;;22.40;80.70;;;;;;5039714;28;20111;-80
2022/06/21 09:25:21;;;;;;;3.58;0.40;;;22.00;80.70;;;;;;5040907;28;20470;-80
2022/06/21 09:27:50;;;;;;;2.10;0.75;;;21.40;82.30;;;;;;5040493;28;20041;-80
2022/06/21 09:30:26;;;;;;;6.05;0.50;;;21.30;82.90;;;;;;5023865;28;20049;-80
2022/06/21 09:33:14;;;;;;;9.48;0.70;;;21.90;80.70;;;;;;5041234;28;20037;-80
2022/06/21 09:36:04;;;;;;;3.38;0.50;;;22.60;82.00;;;;;;5045679;28;20104;-81
2022/06/21 09:38:56;;;;;;;4.80;0.55;;;23.10;80.80;;;;;;5052366;28;20222;-80
2022/06/21 09:42:00;;;;;;;3.38;0.40;;;22.80;80.10;;;;;;5065983;28;20033;-81
2022/06/21 09:45:02;;;;;;;1.45;0.40;;;22.70;83.00;;;;;;5065319;28;20102;-81
2022/06/21 09:47:47;;;;;;;5.05;0.43;;;23.20;80.10;;;;;;5056439;28;20063;-81
2022/06/21 09:50:20;;;;;;;4.65;0.60;;;23.60;79.20;;;;;;5060759;28;20067;-80
2022/06/21 09:53:13;;;;;;;3.05;0.30;;;23.50;77.30;;;;;;5042684;28;20483;-80
2022/06/21 09:56:05;;;;;;;3.67;0.40;;;23.60;78.00;;;;;;5060258;28;20643;-81
2022/06/21 09:58:49;;;;;;;2.20;0.32;;;24.10;74.50;;;;;;5063760;28;20252;-82
2022/06/21 10:01:26;;;;;;;1.50;0.40;;;24.00;73.30;;;;;;5060911;28;20073;-81
2022/06/21 10:04:21;;;;;;;4.30;0.50;;;24.10;73.80;;;;;;5059993;28;20041;-80
2022/06/21 10:07:02;;;;;;;3.65;0.32;;;24.20;74.30;;;;;;5059680;28;20067;-80
2022/06/21 10:09:46;;;;;;;2.40;0.47;;;23.40;73.80;;;;;;5059734;28;20045;-81
2022/06/21 10:12:48;;;;;;;2.97;0.63;;;23.10;71.50;;;;;;5057629;28;20045;-81
2022/06/21 10:15:26;;;;;;;0.70;0.20;;;23.00;71.40;;;;;;5042270;28;20048;-81
2022/06/21 10:18:28;;;;;;;1.98;0.57;;;23.00;72.40;;;;;;5059218;28;20064;-81
2022/06/21 10:21:22;;;;;;;1.67;0.20;;;23.10;70.80;;;;;;5058987;28;20170;-82
2022/06/21 10:24:14;;;;;;;3.50;0.30;;;23.40;71.60;;;;;;5058661;28;20041;-81
2022/06/21 10:27:01;;;;;;;2.58;0.30;;;23.60;71.70;;;;;;5045076;28;20140;-82
2022/06/21 10:29:38;;;;;;;1.98;0.30;;;23.30;72.40;;;;;;5057308;28;20515;-82
2022/06/21 10:32:36;;;;;;;4.53;0.30;;;23.00;68.90;;;;;;5039775;28;20091;-81
2022/06/21 10:35:41;;;;;;;2.55;0.40;;;22.70;69.00;;;;;;5057373;28;20098;-80
2022/06/21 10:38:21;;;;;;;1.83;0.30;;;22.50;69.90;;;;;;5056970;28;20079;-81
2022/06/21 10:41:19;;;;;;;2.90;0.63;;;22.30;71.10;;;;;;5057584;28;20045;-82
2022/06/21 10:44:02;;;;;;;0.95;0.38;;;22.30;74.50;;;;;;5041624;28;20532;-81
2022/06/21 10:46:49;;;;;;;2.83;0.25;;;22.60;73.80;;;;;;5058260;28;20096;-81
2022/06/21 10:49:45;;;;;;;3.40;0.20;;;23.00;73.20;;;;;;5059139;28;20125;-81
2022/06/21 10:52:29;;;;;;;2.60;0.30;;;23.60;71.00;;;;;;5057124;28;20037;-81
2022/06/21 10:55:14;;;;;;;1.45;0.20;;;24.30;68.00;;;;;;5057903;28;20072;-81
2022/06/21 10:58:08;;;;;;;3.45;0.20;;;24.50;69.70;;;;;;5057895;28;20543;-81
2022/06/21 11:03:34;;;;;;;4.78;0.30;;;25.60;67.80;;;;;;5038600;28;20553;-81
2022/06/21 11:06:47;;;;;;;4.43;0.57;;;25.80;65.00;;;;;;5038174;28;20037;-81
2022/06/21 11:09:27;;;;;;;2.92;0.60;;;25.30;65.90;;;;;;4942046;29;20039;-81
2022/06/21 11:15:26;;;;;;;2.47;0.20;;;24.90;64.30;;;;;;5019190;28;20073;-81
2022/06/21 11:18:18;;;;;;;1.73;0.20;;;24.90;66.50;;;;;;5054333;28;20132;-81
2022/06/21 11:21:15;;;;;;;2.95;0.40;;;24.60;65.50;;;;;;5041158;28;20095;-81
2022/06/21 11:24:03;;;;;;;3.28;0.30;;;24.20;66.20;;;;;;5057706;28;20044;-81
2022/06/21 11:27:02;;;;;;;1.90;0.32;;;24.20;65.00;;;;;;5058130;28;20042;-81
2022/06/21 11:29:46;;;;;;;2.17;0.22;;;24.50;66.10;;;;;;5057778;28;20080;-81
2022/06/21 11:32:40;;;;;;;2.13;0.23;;;24.90;66.00;;;;;;5057914;28;20059;-81
2022/06/21 11:35:19;;;;;;;1.40;0.57;;;25.40;63.30;;;;;;5056765;28;20071;-82
2022/06/21 11:38:03;;;;;;;4.57;0.30;;;25.70;61.50;;;;;;5057265;28;20056;-81
2022/06/21 11:40:52;;;;;;;5.50;0.50;;;26.10;61.40;;;;;;5057278;28;20041;-81
2022/06/21 11:43:43;;;;;;;2.90;0.40;;;26.70;60.70;;;;;;5057278;28;20037;-81
2022/06/21 11:46:30;;;;;;;3.47;0.52;;;26.40;60.60;;;;;;5056994;28;20049;-81
2022/06/21 11:49:25;;;;;;;6.40;0.35;;;26.20;57.70;;;;;;5057871;28;20468;-81
2022/06/21 11:51:56;;;;;;;;;;;26.30;63.40;;;;;;5041191;28;20079;-81
2022/06/21 11:54:33;;;;;;;6.03;0.73;;;26.70;60.90;;;;;;5057869;28;20053;-81
2022/06/21 11:57:32;;;;;;;2.17;0.40;;;27.00;61.50;;;;;;5056339;28;20380;-82
2022/06/21 12:00:05;;;;;;;1.58;0.35;;;27.30;59.10;;;;;;5037359;28;20049;-81
2022/06/21 12:03:04;;;;;;;0.90;0.20;;;27.50;58.60;;;;;;5038026;28;20037;-81
2022/06/21 12:05:40;;;;;;;2.33;0.40;;;27.80;60.80;;;;;;5037729;28;20408;-81
2022/06/21 12:08:22;;;;;;;2.05;0.43;;;28.30;55.30;;;;;;5036947;28;20429;-82
2022/06/21 12:11:08;;;;;;;2.72;0.40;;;28.70;53.60;;;;;;5036192;28;20037;-81
2022/06/21 12:14:11;;;;;;;6.07;0.63;;;28.20;53.90;;;;;;5047559;28;20098;-81
2022/06/21 12:17:01;;;;;;;6.90;0.68;;;27.60;53.30;;;;;;5055126;28;20483;-82
2022/06/21 12:19:38;;;;;;;4.43;0.93;;;27.60;56.50;;;;;;5053778;28;20091;-82
2022/06/21 12:22:21;;;;;;;1.67;0.60;;;27.90;57.00;;;;;;5052852;28;20048;-82
2022/06/21 12:24:49;;;;;;;3.58;0.20;;;28.10;56.50;;;;;;5038021;28;20041;-83
2022/06/21 12:27:16;;;;;;;1.65;0.20;;;28.30;55.80;;;;;;5054156;28;20455;-83
2022/06/21 12:29:41;;;;;;;1.02;0.25;;;28.50;55.90;;;;;;5055076;28;20098;-83
2022/06/21 12:32:18;;;;;;;4.10;0.50;;;28.60;55.50;;;;;;5055654;28;20120;-82
2022/06/21 12:35:01;;;;;;;2.08;0.30;;;28.20;53.50;;;;;;5055066;28;20041;-82
2022/06/21 12:37:39;;;;;;;1.50;0.30;;;27.40;55.10;;;;;;5055179;28;20041;-83
2022/06/21 12:40:13;;;;;;;2.17;0.20;;;26.90;56.00;;;;;;5056264;28;20045;-83
2022/06/21 12:42:56;;;;;;;1.08;0.50;;;26.90;56.30;;;;;;5055721;28;20076;-83
2022/06/21 12:45:50;;;;;;;1.42;0.20;;;27.30;57.20;;;;;;5055449;28;20052;-84
2022/06/21 12:48:19;;;;;;;2.83;0.20;;;27.50;53.00;;;;;;5055452;28;20203;-83
2022/06/21 12:51:23;;;;;;;6.20;0.40;;;27.60;54.30;;;;;;5037977;28;20044;-82
2022/06/21 12:54:03;;;;;;;4.65;0.40;;;27.20;54.90;;;;;;4995397;28;20092;-82
2022/06/21 12:56:45;;;;;;;2.17;0.70;;;27.00;54.40;;;;;;5052633;28;20037;-83
2022/06/21 12:59:32;;;;;;;7.50;0.80;;;26.80;54.20;;;;;;5069095;28;20395;-83
2022/06/21 13:02:36;;;;;;;5.07;0.65;;;26.50;54.60;;;;;;5047385;28;20072;-82
2022/06/21 13:05:19;;;;;;;2.60;0.32;;;26.30;53.70;;;;;;5019422;28;20045;-84
2022/06/21 13:07:59;;;;;;;3.80;1.88;;;26.40;56.10;;;;;;5058360;28;20519;-82
2022/06/21 13:10:39;;;;;;;61.80;50.20;;;26.60;58.80;;;;;;5052540;28;20044;-82
2022/06/21 13:13:33;;;;;;;76.10;57.85;;;26.80;55.00;;;;;;5053705;28;20506;-82
2022/06/21 13:15:59;;;;;;;11.30;6.65;;;27.10;55.00;;;;;;5056812;28;20068;-83
2022/06/21 13:18:50;;;;;;;3.67;0.63;;;27.20;55.10;;;;;;5045801;28;20158;-83
2022/06/21 13:21:42;;;;;;;2.13;0.17;;;27.20;54.40;;;;;;5051923;28;20037;-83
2022/06/21 13:24:21;;;;;;;0.70;0.20;;;27.10;54.00;;;;;;5027252;28;20124;-83
2022/06/21 13:26:46;;;;;;;3.10;0.52;;;26.90;55.60;;;;;;5038828;28;20041;-84
2022/06/21 13:29:43;;;;;;;3.15;0.40;;;26.90;53.80;;;;;;5053411;28;20436;-84
2022/06/21 13:32:18;;;;;;;2.20;0.30;;;27.20;53.60;;;;;;5048920;28;20040;-83
2022/06/21 13:34:49;;;;;;;3.08;0.50;;;27.30;56.40;;;;;;5052699;28;20029;-84
2022/06/21 13:37:36;;;;;;;11.05;0.77;;;27.40;53.90;;;;;;5059959;28;20606;-82
2022/06/21 13:40:17;;;;;;;2.55;0.47;;;28.00;55.30;;;;;;5059493;28;20056;-84
2022/06/21 13:42:55;;;;;;;2.28;0.20;;;28.20;53.10;;;;;;5059714;28;20037;-83
2022/06/21 13:45:35;;;;;;;1.10;0.20;;;28.20;52.10;;;;;;5050600;28;20054;-83
2022/06/21 13:48:24;;;;;;;1.73;0.52;;;28.10;53.40;;;;;;5063998;28;20052;-82
2022/06/21 13:50:56;;;;;;;3.15;0.20;;;27.90;51.80;;;;;;5046363;28;20083;-83
2022/06/21 13:53:52;;;;;;;8.05;0.82;;;27.90;52.40;;;;;;5059361;28;20053;-82
2022/06/21 13:56:40;;;;;;;8.93;0.68;;;27.90;55.10;;;;;;5060637;28;20049;-82
2022/06/21 13:59:11;;;;;;;3.70;0.30;;;27.60;52.80;;;;;;5058739;28;20041;-83
2022/06/21 14:02:03;;;;;;;210.45;188.68;;;27.40;53.00;;;;;;5058467;28;20045;-82
2022/06/21 14:04:33;;;;;;;102.10;83.30;;;27.50;54.20;;;;;;5057984;28;20052;-83
2022/06/21 14:07:25;;;;;;;68.32;58.15;;;27.40;52.80;;;;;;5038601;28;20048;-83